createdAt,value
2022-12-03T00:00:37.310Z,99.99
2022-12-03T00:01:37.295Z,99.99
2022-12-03T00:02:37.317Z,99.99
2022-12-03T00:03:37.408Z,99.99
2022-12-03T00:04:37.209Z,99.99
2022-12-03T00:05:37.247Z,99.99
2022-12-03T00:06:37.176Z,99.99
2022-12-03T00:07:37.311Z,99.99
2022-12-03T00:08:37.152Z,99.99
2022-12-03T00:09:37.182Z,99.99
2022-12-03T00:10:37.140Z,99.99
2022-12-03T00:11:37.154Z,99.99
2022-12-03T00:12:37.128Z,99.99
2022-12-03T00:13:37.120Z,99.99
2022-12-03T00:14:42.847Z,99.99
2022-12-03T00:15:37.143Z,99.99
2022-12-03T00:16:37.062Z,99.99
2022-12-03T00:17:37.089Z,99.99
2022-12-03T00:18:37.024Z,99.99
2022-12-03T00:19:37.065Z,99.99
2022-12-03T00:20:37.008Z,99.99
2022-12-03T00:21:37.015Z,99.99
2022-12-03T00:22:36.989Z,99.99
2022-12-03T00:23:41.787Z,99.99
2022-12-03T00:24:36.980Z,99.99
2022-12-03T00:25:36.967Z,99.99
2022-12-03T00:26:36.920Z,99.99
2022-12-03T00:27:36.935Z,99.99
2022-12-03T00:28:36.899Z,99.99
2022-12-03T00:29:36.932Z,99.99
2022-12-03T00:30:36.865Z,99.99
2022-12-03T00:31:36.964Z,99.99
2022-12-03T00:32:36.859Z,99.99
2022-12-03T00:33:36.871Z,99.99
2022-12-03T00:34:36.835Z,99.99
2022-12-03T00:35:36.847Z,99.99
2022-12-03T00:36:36.814Z,99.99
2022-12-03T00:37:36.798Z,99.99
2022-12-03T00:38:36.774Z,99.99
2022-12-03T00:39:36.781Z,99.99
2022-12-03T00:40:36.735Z,99.99
2022-12-03T00:41:36.772Z,99.99
2022-12-03T00:42:36.719Z,99.99
2022-12-03T00:43:36.755Z,99.99
2022-12-03T00:44:36.697Z,99.99
2022-12-03T00:45:36.700Z,99.99
2022-12-03T00:46:36.726Z,99.99
2022-12-03T00:47:36.722Z,99.99
2022-12-03T00:48:36.662Z,99.99
2022-12-03T00:49:36.648Z,99.99
2022-12-03T00:50:36.614Z,99.99
2022-12-03T00:51:36.649Z,99.99
2022-12-03T00:52:36.598Z,99.99
2022-12-03T00:53:36.592Z,99.99
2022-12-03T00:54:36.561Z,99.99
2022-12-03T00:55:36.564Z,99.99
2022-12-03T00:56:36.564Z,99.99
2022-12-03T00:57:36.546Z,99.99
2022-12-03T00:58:36.510Z,99.99
2022-12-03T00:59:36.527Z,99.99
2022-12-03T01:00:36.504Z,99.99
2022-12-03T01:01:36.515Z,99.99
2022-12-03T01:02:36.480Z,99.99
2022-12-03T01:03:36.483Z,99.99
2022-12-03T01:04:36.487Z,99.99
2022-12-03T01:05:36.439Z,99.99
2022-12-03T01:06:36.412Z,99.99
2022-12-03T01:07:36.519Z,99.99
2022-12-03T01:08:36.398Z,99.99
2022-12-03T01:09:36.429Z,99.99
2022-12-03T01:10:36.368Z,99.99
2022-12-03T01:11:36.362Z,99.99
2022-12-03T01:12:36.330Z,99.99
2022-12-03T01:13:36.365Z,99.99
2022-12-03T01:14:36.349Z,99.99
2022-12-03T01:15:36.398Z,99.99
2022-12-03T01:16:36.333Z,99.99
2022-12-03T01:17:36.289Z,99.99
2022-12-03T01:18:36.268Z,99.99
2022-12-03T01:19:36.267Z,99.99
2022-12-03T01:20:36.259Z,99.99
2022-12-03T01:21:36.240Z,99.99
2022-12-03T01:22:36.208Z,99.99
2022-12-03T01:23:36.232Z,99.99
2022-12-03T01:24:36.168Z,99.99
2022-12-03T01:25:36.190Z,99.99
2022-12-03T01:26:36.145Z,99.99
2022-12-03T01:27:36.179Z,99.99
2022-12-03T01:28:36.138Z,99.99
2022-12-03T01:29:36.133Z,99.99
2022-12-03T01:30:36.107Z,99.99
2022-12-03T01:31:36.148Z,99.99
2022-12-03T01:32:36.076Z,99.99
2022-12-03T01:33:36.106Z,99.99
2022-12-03T01:34:36.060Z,99.99
2022-12-03T01:35:36.065Z,99.99
2022-12-03T01:36:36.020Z,99.99
2022-12-03T01:37:36.055Z,99.99
2022-12-03T01:38:35.989Z,99.99
2022-12-03T01:39:36.030Z,99.99
2022-12-03T01:40:35.973Z,99.99
2022-12-03T01:41:35.976Z,99.99
2022-12-03T01:42:35.938Z,99.99
2022-12-03T01:43:35.952Z,99.99
2022-12-03T01:44:35.931Z,99.99
2022-12-03T01:45:35.932Z,99.99
2022-12-03T01:46:35.960Z,99.99
2022-12-03T01:47:35.932Z,99.99
2022-12-03T01:48:35.864Z,99.99
2022-12-03T01:49:35.900Z,99.99
2022-12-03T01:50:35.838Z,99.99
2022-12-03T01:51:35.842Z,99.99
2022-12-03T01:52:35.807Z,99.99
2022-12-03T01:53:35.822Z,99.99
2022-12-03T01:54:35.812Z,99.99
2022-12-03T01:55:35.791Z,99.99
2022-12-03T01:56:35.781Z,99.99
2022-12-03T01:57:35.782Z,99.99
2022-12-03T01:58:35.736Z,99.99
2022-12-03T01:59:35.757Z,99.99
2022-12-03T02:00:35.729Z,99.99
2022-12-03T02:01:35.730Z,99.99
2022-12-03T02:02:35.681Z,99.99
2022-12-03T02:03:35.738Z,99.99
2022-12-03T02:04:35.669Z,99.99
2022-12-03T02:05:35.667Z,99.99
2022-12-03T02:06:35.654Z,99.99
2022-12-03T02:07:35.679Z,99.99
2022-12-03T02:08:35.613Z,99.99
2022-12-03T02:09:35.664Z,99.99
2022-12-03T02:10:35.589Z,99.99
2022-12-03T02:11:35.582Z,99.99
2022-12-03T02:12:35.545Z,99.99
2022-12-03T02:13:35.593Z,99.99
2022-12-03T02:14:35.567Z,99.99
2022-12-03T02:15:35.540Z,99.99
2022-12-03T02:16:35.572Z,99.99
2022-12-03T02:17:35.524Z,99.99
2022-12-03T02:18:35.477Z,99.99
2022-12-03T02:19:35.575Z,99.99
2022-12-03T02:20:35.454Z,99.99
2022-12-03T02:21:35.467Z,99.99
2022-12-03T02:22:35.459Z,99.99
2022-12-03T02:23:35.461Z,99.99
2022-12-03T02:24:35.396Z,99.99
2022-12-03T02:25:35.404Z,99.99
2022-12-03T02:26:35.377Z,99.99
2022-12-03T02:27:35.393Z,99.99
2022-12-03T02:28:35.369Z,99.99
2022-12-03T02:29:35.351Z,99.99
2022-12-03T02:30:35.318Z,99.99
2022-12-03T02:31:35.379Z,99.99
2022-12-03T02:32:35.306Z,99.99
2022-12-03T02:33:35.322Z,99.99
2022-12-03T02:34:35.276Z,99.99
2022-12-03T02:35:35.328Z,99.99
2022-12-03T02:36:35.251Z,99.99
2022-12-03T02:37:35.264Z,99.99
2022-12-03T02:38:35.222Z,99.99
2022-12-03T02:39:35.225Z,99.99
2022-12-03T02:40:35.196Z,99.99
2022-12-03T02:41:35.223Z,99.99
2022-12-03T02:42:35.172Z,99.99
2022-12-03T02:43:35.177Z,99.99
2022-12-03T02:44:35.137Z,99.99
2022-12-03T02:45:35.177Z,99.99
2022-12-03T02:46:35.206Z,99.99
2022-12-03T02:47:35.144Z,99.99
2022-12-03T02:48:35.094Z,99.99
2022-12-03T02:49:35.102Z,99.99
2022-12-03T02:50:35.067Z,99.99
2022-12-03T02:51:35.089Z,99.99
2022-12-03T02:52:35.027Z,99.99
2022-12-03T02:53:35.052Z,99.99
2022-12-03T02:54:35.020Z,99.99
2022-12-03T02:55:37.220Z,99.99
2022-12-03T02:56:34.986Z,99.99
2022-12-03T02:57:35.017Z,99.99
2022-12-03T02:58:34.966Z,99.99
2022-12-03T02:59:34.976Z,99.99
2022-12-03T03:00:35.019Z,99.99
2022-12-03T03:01:35.165Z,99.99
2022-12-03T03:02:34.946Z,99.99
2022-12-03T03:03:34.928Z,99.99
2022-12-03T03:04:34.892Z,99.99
2022-12-03T03:05:34.896Z,99.99
2022-12-03T03:06:34.872Z,99.99
2022-12-03T03:07:34.891Z,99.99
2022-12-03T03:08:34.861Z,99.99
2022-12-03T03:09:34.840Z,99.99
2022-12-03T03:10:34.806Z,99.99
2022-12-03T03:11:34.808Z,99.99
2022-12-03T03:12:39.036Z,99.99
2022-12-03T03:13:34.813Z,99.99
2022-12-03T03:14:34.753Z,99.99
2022-12-03T03:15:34.756Z,99.99
2022-12-03T03:16:35.219Z,99.99
2022-12-03T03:17:34.756Z,99.99
2022-12-03T03:18:34.704Z,99.99
2022-12-03T03:19:34.736Z,99.99
2022-12-03T03:20:34.679Z,99.99
2022-12-03T03:21:34.700Z,99.99
2022-12-03T03:22:34.646Z,99.99
2022-12-03T03:23:34.652Z,99.99
2022-12-03T03:24:34.650Z,99.99
2022-12-03T03:25:34.637Z,99.99
2022-12-03T03:26:34.599Z,99.99
2022-12-03T03:27:34.604Z,99.99
2022-12-03T03:28:34.587Z,99.99
2022-12-03T03:29:34.577Z,99.99
2022-12-03T03:30:34.556Z,99.99
2022-12-03T03:31:34.636Z,99.99
2022-12-03T03:32:34.520Z,99.99
2022-12-03T03:33:34.547Z,99.99
2022-12-03T03:34:34.501Z,99.99
2022-12-03T03:35:34.523Z,99.99
2022-12-03T03:36:34.498Z,99.99
2022-12-03T03:37:34.473Z,99.99
2022-12-03T03:38:34.487Z,99.99
2022-12-03T03:39:34.497Z,99.99
2022-12-03T03:40:34.412Z,99.99
2022-12-03T03:41:34.437Z,99.99
2022-12-03T03:42:34.378Z,99.99
2022-12-03T03:43:34.415Z,99.99
2022-12-03T03:44:34.358Z,99.99
2022-12-03T03:45:34.397Z,99.99
2022-12-03T03:46:34.668Z,99.99
2022-12-03T03:47:34.334Z,99.99
2022-12-03T03:48:34.334Z,99.99
2022-12-03T03:49:34.299Z,99.99
2022-12-03T03:50:34.309Z,99.99
2022-12-03T03:51:34.292Z,99.99
2022-12-03T03:52:34.313Z,99.99
2022-12-03T03:53:34.244Z,99.99
2022-12-03T03:54:34.257Z,99.99
2022-12-03T03:55:34.244Z,99.99
2022-12-03T03:56:34.231Z,99.99
2022-12-03T03:57:34.221Z,99.99
2022-12-03T03:58:34.209Z,99.99
2022-12-03T03:59:34.188Z,99.99
2022-12-03T04:00:34.207Z,99.99
2022-12-03T04:01:34.283Z,99.99
2022-12-03T04:02:34.159Z,99.99
2022-12-03T04:03:34.142Z,99.99
2022-12-03T04:04:34.212Z,99.99
2022-12-03T04:05:34.093Z,99.99
2022-12-03T04:06:34.123Z,99.99
2022-12-03T04:07:34.101Z,99.99
2022-12-03T04:08:34.109Z,99.99
2022-12-03T04:09:34.034Z,99.99
2022-12-03T04:10:34.049Z,99.99
2022-12-03T04:11:34.018Z,99.99
2022-12-03T04:12:34.026Z,99.99
2022-12-03T04:13:34.011Z,99.99
2022-12-03T04:14:34.000Z,99.99
2022-12-03T04:15:33.975Z,99.99
2022-12-03T04:16:34.182Z,99.99
2022-12-03T04:17:33.939Z,99.99
2022-12-03T04:18:33.980Z,99.99
2022-12-03T04:19:33.936Z,99.99
2022-12-03T04:20:33.923Z,99.99
2022-12-03T04:21:33.894Z,99.99
2022-12-03T04:22:33.905Z,99.99
2022-12-03T04:23:33.871Z,99.99
2022-12-03T04:24:33.908Z,99.99
2022-12-03T04:25:33.840Z,99.99
2022-12-03T04:26:33.842Z,99.99
2022-12-03T04:27:33.811Z,99.99
2022-12-03T04:28:33.814Z,99.99
2022-12-03T04:29:33.811Z,99.99
2022-12-03T04:30:33.943Z,99.99
2022-12-03T04:31:33.768Z,99.99
2022-12-03T04:32:33.770Z,99.99
2022-12-03T04:33:33.759Z,99.99
2022-12-03T04:34:33.746Z,99.99
2022-12-03T04:35:33.775Z,99.99
2022-12-03T04:36:33.724Z,99.99
2022-12-03T04:37:33.696Z,99.99
2022-12-03T04:38:33.696Z,99.99
2022-12-03T04:39:33.669Z,99.99
2022-12-03T04:40:33.665Z,99.99
2022-12-03T04:41:33.629Z,99.99
2022-12-03T04:42:33.659Z,99.99
2022-12-03T04:43:33.609Z,99.99
2022-12-03T04:44:33.639Z,99.99
2022-12-03T04:45:33.689Z,99.99
2022-12-03T04:46:33.605Z,99.99
2022-12-03T04:47:39.648Z,99.99
2022-12-03T04:48:33.580Z,99.99
2022-12-03T04:49:33.550Z,99.99
2022-12-03T04:50:33.539Z,99.99
2022-12-03T04:51:33.496Z,99.99
2022-12-03T04:52:33.514Z,99.99
2022-12-03T04:53:36.141Z,99.99
2022-12-03T04:54:33.511Z,99.99
2022-12-03T04:55:33.464Z,99.99
2022-12-03T04:56:33.458Z,99.99
2022-12-03T04:57:33.428Z,99.99
2022-12-03T04:58:33.451Z,99.99
2022-12-03T04:59:33.401Z,99.99
2022-12-03T05:00:33.404Z,99.99
2022-12-03T05:01:33.454Z,99.99
2022-12-03T05:02:33.459Z,99.99
2022-12-03T05:03:33.349Z,99.99
2022-12-03T05:04:33.392Z,99.99
2022-12-03T05:05:33.348Z,99.99
2022-12-03T05:06:33.326Z,99.99
2022-12-03T05:07:33.419Z,99.99
2022-12-03T05:08:33.307Z,99.99
2022-12-03T05:09:33.274Z,99.99
2022-12-03T05:10:33.284Z,99.99
2022-12-03T05:11:33.286Z,99.99
2022-12-03T05:12:33.246Z,99.99
2022-12-03T05:13:33.215Z,99.99
2022-12-03T05:14:33.227Z,99.99
2022-12-03T05:15:33.195Z,99.99
2022-12-03T05:16:33.285Z,99.99
2022-12-03T05:17:33.168Z,99.99
2022-12-03T05:18:33.181Z,99.99
2022-12-03T05:19:33.141Z,99.99
2022-12-03T05:20:33.156Z,99.99
2022-12-03T05:21:33.162Z,99.99
2022-12-03T05:22:33.132Z,99.99
2022-12-03T05:23:33.095Z,99.99
2022-12-03T05:24:33.100Z,99.99
2022-12-03T05:25:33.071Z,99.99
2022-12-03T05:26:33.104Z,99.99
2022-12-03T05:27:33.033Z,99.99
2022-12-03T05:28:33.051Z,99.99
2022-12-03T05:29:33.014Z,99.99
2022-12-03T05:30:33.101Z,99.99
2022-12-03T05:31:33.011Z,99.99
2022-12-03T05:32:32.996Z,99.99
2022-12-03T05:33:32.993Z,99.99
2022-12-03T05:34:33.007Z,99.99
2022-12-03T05:35:32.936Z,99.99
2022-12-03T05:36:32.951Z,99.99
2022-12-03T05:37:32.929Z,99.99
2022-12-03T05:38:32.962Z,99.99
2022-12-03T05:39:32.901Z,99.99
2022-12-03T05:40:32.919Z,99.99
2022-12-03T05:41:32.863Z,99.99
2022-12-03T05:42:32.859Z,99.99
2022-12-03T05:43:32.844Z,99.99
2022-12-03T05:44:32.868Z,99.99
2022-12-03T05:45:32.807Z,99.99
2022-12-03T05:46:32.904Z,99.99
2022-12-03T05:47:32.791Z,99.99
2022-12-03T05:48:32.797Z,99.99
2022-12-03T05:49:32.774Z,99.99
2022-12-03T05:50:32.773Z,99.99
2022-12-03T05:51:32.741Z,99.99
2022-12-03T05:52:32.767Z,99.99
2022-12-03T05:53:32.711Z,99.99
2022-12-03T05:54:32.737Z,99.99
2022-12-03T05:55:32.696Z,99.99
2022-12-03T05:56:32.694Z,99.99
2022-12-03T05:57:32.645Z,99.99
2022-12-03T05:58:32.661Z,99.99
2022-12-03T05:59:32.656Z,99.99
2022-12-03T06:00:34.580Z,99.99
2022-12-03T06:01:32.610Z,99.99
2022-12-03T06:02:32.771Z,99.99
2022-12-03T06:03:32.821Z,99.99
2022-12-03T06:04:32.592Z,99.99
2022-12-03T06:05:32.556Z,99.99
2022-12-03T06:06:32.582Z,99.99
2022-12-03T06:07:32.569Z,99.99
2022-12-03T06:08:32.566Z,99.99
2022-12-03T06:09:32.497Z,99.99
2022-12-03T06:10:32.499Z,99.99
2022-12-03T06:11:32.487Z,99.99
2022-12-03T06:12:32.482Z,99.99
2022-12-03T06:13:32.465Z,99.99
2022-12-03T06:14:32.453Z,99.99
2022-12-03T06:15:32.535Z,99.99
2022-12-03T06:16:32.552Z,99.99
2022-12-03T06:17:32.390Z,99.99
2022-12-03T06:18:32.403Z,99.99
2022-12-03T06:19:32.371Z,99.99
2022-12-03T06:20:32.382Z,99.99
2022-12-03T06:21:32.356Z,99.99
2022-12-03T06:22:32.359Z,99.99
2022-12-03T06:23:32.332Z,99.99
2022-12-03T06:24:32.345Z,99.99
2022-12-03T06:25:32.292Z,99.99
2022-12-03T06:26:32.303Z,99.99
2022-12-03T06:27:32.287Z,99.99
2022-12-03T06:28:32.276Z,99.99
2022-12-03T06:29:32.249Z,99.99
2022-12-03T06:30:32.263Z,99.99
2022-12-03T06:31:32.312Z,99.99
2022-12-03T06:32:32.226Z,99.99
2022-12-03T06:33:32.228Z,99.99
2022-12-03T06:34:32.212Z,99.99
2022-12-03T06:35:32.188Z,99.99
2022-12-03T06:36:32.168Z,99.99
2022-12-03T06:37:32.138Z,99.99
2022-12-03T06:38:32.188Z,99.99
2022-12-03T06:39:32.126Z,99.99
2022-12-03T06:40:32.122Z,99.99
2022-12-03T06:41:32.091Z,99.99
2022-12-03T06:42:32.095Z,99.99
2022-12-03T06:43:32.094Z,99.99
2022-12-03T06:44:32.079Z,99.99
2022-12-03T06:45:32.040Z,99.99
2022-12-03T06:46:32.129Z,99.99
2022-12-03T06:47:32.006Z,99.99
2022-12-03T06:48:32.050Z,99.99
2022-12-03T06:49:31.979Z,99.99
2022-12-03T06:50:32.000Z,99.99
2022-12-03T06:51:31.972Z,99.99
2022-12-03T06:52:31.956Z,99.99
2022-12-03T06:53:31.922Z,99.99
2022-12-03T06:54:31.970Z,99.99
2022-12-03T06:55:31.940Z,99.99
2022-12-03T06:56:36.800Z,99.99
2022-12-03T06:57:31.895Z,99.99
2022-12-03T06:58:31.893Z,99.99
2022-12-03T06:59:31.853Z,99.99
2022-12-03T07:00:31.890Z,99.99
2022-12-03T07:01:31.859Z,99.99
2022-12-03T07:02:31.902Z,99.99
2022-12-03T07:03:31.814Z,99.99
2022-12-03T07:04:31.831Z,99.99
2022-12-03T07:05:31.793Z,99.99
2022-12-03T07:06:31.790Z,99.99
2022-12-03T07:07:31.812Z,99.99
2022-12-03T07:08:31.769Z,99.99
2022-12-03T07:09:31.724Z,99.99
2022-12-03T07:10:31.776Z,99.99
2022-12-03T07:11:31.709Z,99.99
2022-12-03T07:12:31.738Z,99.99
2022-12-03T07:13:31.674Z,99.99
2022-12-03T07:14:31.692Z,99.99
2022-12-03T07:15:31.668Z,99.99
2022-12-03T07:16:31.752Z,99.99
2022-12-03T07:17:31.634Z,99.99
2022-12-03T07:18:31.628Z,99.99
2022-12-03T07:19:33.036Z,99.99
2022-12-03T07:20:31.631Z,99.99
2022-12-03T07:21:31.597Z,99.99
2022-12-03T07:22:31.588Z,99.99
2022-12-03T07:23:31.544Z,99.99
2022-12-03T07:24:31.548Z,99.99
2022-12-03T07:25:31.534Z,99.99
2022-12-03T07:26:31.548Z,99.99
2022-12-03T07:27:31.501Z,99.99
2022-12-03T07:28:31.518Z,99.99
2022-12-03T07:29:31.472Z,99.99
2022-12-03T07:30:31.475Z,99.99
2022-12-03T07:31:31.533Z,99.99
2022-12-03T07:32:31.479Z,99.99
2022-12-03T07:33:31.415Z,99.99
2022-12-03T07:34:31.424Z,99.99
2022-12-03T07:35:31.381Z,99.99
2022-12-03T07:36:31.405Z,99.99
2022-12-03T07:37:31.389Z,99.99
2022-12-03T07:38:31.377Z,99.99
2022-12-03T07:39:31.358Z,99.99
2022-12-03T07:40:31.349Z,99.99
2022-12-03T07:41:31.326Z,99.99
2022-12-03T07:42:31.323Z,99.99
2022-12-03T07:43:31.279Z,99.99
2022-12-03T07:44:31.338Z,99.99
2022-12-03T07:45:31.254Z,99.99
2022-12-03T07:46:31.330Z,99.99
2022-12-03T07:47:31.259Z,99.99
2022-12-03T07:48:31.243Z,99.99
2022-12-03T07:49:31.202Z,99.99
2022-12-03T07:50:31.226Z,99.99
2022-12-03T07:51:32.458Z,99.99
2022-12-03T07:52:31.215Z,99.99
2022-12-03T07:53:31.157Z,99.99
2022-12-03T07:54:31.160Z,99.99
2022-12-03T07:55:31.128Z,99.99
2022-12-03T07:56:31.156Z,99.99
2022-12-03T07:57:31.125Z,99.99
2022-12-03T07:58:31.112Z,99.99
2022-12-03T07:59:31.075Z,99.99
2022-12-03T08:00:31.131Z,99.99
2022-12-03T08:01:31.128Z,99.99
2022-12-03T08:02:31.213Z,99.99
2022-12-03T08:03:31.046Z,99.99
2022-12-03T08:04:31.015Z,99.99
2022-12-03T08:05:31.016Z,99.99
2022-12-03T08:06:31.033Z,99.99
2022-12-03T08:07:31.055Z,99.99
2022-12-03T08:08:30.979Z,99.99
2022-12-03T08:09:30.977Z,99.99
2022-12-03T08:10:30.940Z,99.99
2022-12-03T08:11:30.993Z,99.99
2022-12-03T08:12:30.947Z,99.99
2022-12-03T08:13:30.915Z,99.99
2022-12-03T08:14:30.884Z,99.99
2022-12-03T08:15:35.362Z,99.99
2022-12-03T08:16:30.980Z,99.99
2022-12-03T08:17:30.866Z,99.99
2022-12-03T08:18:30.831Z,99.99
2022-12-03T08:19:30.860Z,99.99
2022-12-03T08:20:30.808Z,99.99
2022-12-03T08:21:30.825Z,99.99
2022-12-03T08:22:30.793Z,99.99
2022-12-03T08:23:30.822Z,99.99
2022-12-03T08:24:30.773Z,99.99
2022-12-03T08:25:30.794Z,99.99
2022-12-03T08:26:30.728Z,99.99
2022-12-03T08:27:30.738Z,99.99
2022-12-03T08:28:30.736Z,99.99
2022-12-03T08:29:30.746Z,99.99
2022-12-03T08:30:30.700Z,99.99
2022-12-03T08:31:33.551Z,99.99
2022-12-03T08:32:30.682Z,99.99
2022-12-03T08:33:30.698Z,99.99
2022-12-03T08:34:30.640Z,99.99
2022-12-03T08:35:30.647Z,99.99
2022-12-03T08:36:30.603Z,99.99
2022-12-03T08:37:30.633Z,99.99
2022-12-03T08:38:30.593Z,99.99
2022-12-03T08:39:30.610Z,99.99
2022-12-03T08:40:30.552Z,99.99
2022-12-03T08:41:30.582Z,99.99
2022-12-03T08:42:30.563Z,99.99
2022-12-03T08:43:30.550Z,99.99
2022-12-03T08:44:30.541Z,99.99
2022-12-03T08:45:30.562Z,99.99
2022-12-03T08:46:30.605Z,99.99
2022-12-03T08:47:30.470Z,99.99
2022-12-03T08:48:30.476Z,99.99
2022-12-03T08:49:30.489Z,99.99
2022-12-03T08:50:30.468Z,99.99
2022-12-03T08:51:30.441Z,99.99
2022-12-03T08:52:30.444Z,99.99
2022-12-03T08:53:30.392Z,99.99
2022-12-03T08:54:30.396Z,99.99
2022-12-03T08:55:30.372Z,99.99
2022-12-03T08:56:30.392Z,99.99
2022-12-03T08:57:30.349Z,99.99
2022-12-03T08:58:30.352Z,99.99
2022-12-03T08:59:30.324Z,99.99
2022-12-03T09:00:30.359Z,99.99
2022-12-03T09:01:30.402Z,99.99
2022-12-03T09:02:30.295Z,99.99
2022-12-03T09:03:30.261Z,99.99
2022-12-03T09:04:30.386Z,99.99
2022-12-03T09:05:30.365Z,99.99
2022-12-03T09:06:30.267Z,99.99
2022-12-03T09:07:30.243Z,99.99
2022-12-03T09:08:30.219Z,99.99
2022-12-03T09:09:30.173Z,99.99
2022-12-03T09:10:30.226Z,99.99
2022-12-03T09:11:30.139Z,99.99
2022-12-03T09:12:30.192Z,99.99
2022-12-03T09:13:30.132Z,99.99
2022-12-03T09:14:30.123Z,99.99
2022-12-03T09:15:30.094Z,99.99
2022-12-03T09:16:30.214Z,99.99
2022-12-03T09:17:30.127Z,99.99
2022-12-03T09:18:30.117Z,99.99
2022-12-03T09:19:30.067Z,99.99
2022-12-03T09:20:30.068Z,99.99
2022-12-03T09:21:30.036Z,99.99
2022-12-03T09:22:30.038Z,99.99
2022-12-03T09:23:30.015Z,99.99
2022-12-03T09:24:30.030Z,99.99
2022-12-03T09:25:29.977Z,99.99
2022-12-03T09:26:29.990Z,99.99
2022-12-03T09:27:29.963Z,99.99
2022-12-03T09:28:29.958Z,99.99
2022-12-03T09:29:29.939Z,99.99
2022-12-03T09:30:29.948Z,99.99
2022-12-03T09:31:29.939Z,99.99
2022-12-03T09:32:29.955Z,99.99
2022-12-03T09:33:29.880Z,99.99
2022-12-03T09:34:29.896Z,99.99
2022-12-03T09:35:29.856Z,99.99
2022-12-03T09:36:29.853Z,99.99
2022-12-03T09:37:29.811Z,99.99
2022-12-03T09:38:29.832Z,99.99
2022-12-03T09:39:29.800Z,99.99
2022-12-03T09:40:29.839Z,99.99
2022-12-03T09:41:29.760Z,99.99
2022-12-03T09:42:29.767Z,99.99
2022-12-03T09:43:49.301Z,99.99
2022-12-03T09:44:29.761Z,99.99
2022-12-03T09:45:29.741Z,99.99
2022-12-03T09:46:29.817Z,99.99
2022-12-03T09:47:29.701Z,99.99
2022-12-03T09:48:29.720Z,99.99
2022-12-03T09:49:29.658Z,99.99
2022-12-03T09:50:29.726Z,99.99
2022-12-03T09:51:29.634Z,99.99
2022-12-03T09:52:29.643Z,99.99
2022-12-03T09:53:29.623Z,99.99
2022-12-03T09:54:29.623Z,99.99
2022-12-03T09:55:29.601Z,99.99
2022-12-03T09:56:29.614Z,99.99
2022-12-03T09:57:29.567Z,99.99
2022-12-03T09:58:34.512Z,99.99
2022-12-03T09:59:29.547Z,99.99
2022-12-03T10:00:29.569Z,99.99
2022-12-03T10:01:30.643Z,99.99
2022-12-03T10:02:29.526Z,99.99
2022-12-03T10:03:30.144Z,99.99
2022-12-03T10:04:29.566Z,99.99
2022-12-03T10:05:29.459Z,99.99
2022-12-03T10:06:29.500Z,99.99
2022-12-03T10:07:29.490Z,99.99
2022-12-03T10:08:32.103Z,99.99
2022-12-03T10:09:29.448Z,99.99
2022-12-03T10:10:29.459Z,99.99
2022-12-03T10:11:29.423Z,99.99
2022-12-03T10:12:29.400Z,99.99
2022-12-03T10:13:29.359Z,99.99
2022-12-03T10:14:29.378Z,99.99
2022-12-03T10:15:29.351Z,99.99
2022-12-03T10:16:29.396Z,99.99
2022-12-03T10:17:29.326Z,99.99
2022-12-03T10:18:30.772Z,99.99
2022-12-03T10:19:29.295Z,99.99
2022-12-03T10:20:29.284Z,99.99
2022-12-03T10:21:29.261Z,99.99
2022-12-03T10:22:29.266Z,99.99
2022-12-03T10:23:29.257Z,99.99
2022-12-03T10:24:29.229Z,99.99
2022-12-03T10:25:29.216Z,99.99
2022-12-03T10:26:29.201Z,99.99
2022-12-03T10:27:29.228Z,99.99
2022-12-03T10:28:29.186Z,99.99
2022-12-03T10:29:33.554Z,99.99
2022-12-03T10:30:29.238Z,99.99
2022-12-03T10:31:29.193Z,99.99
2022-12-03T10:32:29.149Z,99.99
2022-12-03T10:33:29.085Z,99.99
2022-12-03T10:34:29.097Z,99.99
2022-12-03T10:35:29.068Z,99.99
2022-12-03T10:36:29.068Z,99.99
2022-12-03T10:37:29.059Z,99.99
2022-12-03T10:38:29.070Z,99.99
2022-12-03T10:39:29.038Z,99.99
2022-12-03T10:40:29.045Z,99.99
2022-12-03T10:41:28.983Z,99.99
2022-12-03T10:42:29.021Z,99.99
2022-12-03T10:43:28.980Z,99.99
2022-12-03T10:44:29.020Z,99.99
2022-12-03T10:45:28.947Z,99.99
2022-12-03T10:46:29.155Z,99.99
2022-12-03T10:47:29.144Z,99.99
2022-12-03T10:48:29.597Z,99.99
2022-12-03T10:49:28.892Z,99.99
2022-12-03T10:50:28.914Z,99.99
2022-12-03T10:51:28.880Z,99.96
2022-12-03T10:52:28.897Z,99.99
2022-12-03T10:53:28.855Z,99.99
2022-12-03T10:54:28.844Z,99.99
2022-12-03T10:55:28.833Z,99.96
2022-12-03T10:56:28.817Z,99.96
2022-12-03T10:57:28.810Z,99.96
2022-12-03T10:58:28.791Z,99.99
2022-12-03T10:59:28.763Z,99.99
2022-12-03T11:00:28.770Z,99.99
2022-12-03T11:01:28.803Z,99.99
2022-12-03T11:02:28.743Z,99.99
2022-12-03T11:03:28.788Z,99.99
2022-12-03T11:04:28.729Z,99.92
2022-12-03T11:05:28.709Z,99.71
2022-12-03T11:06:28.694Z,99.71
2022-12-03T11:07:28.731Z,99.82
2022-12-03T11:08:28.671Z,99.92
2022-12-03T11:09:28.659Z,99.71
2022-12-03T11:10:28.668Z,99.51
2022-12-03T11:11:28.598Z,99.61
2022-12-03T11:12:28.613Z,99.30
2022-12-03T11:13:28.586Z,99.40
2022-12-03T11:14:28.633Z,99.19
2022-12-03T11:15:28.570Z,99.19
2022-12-03T11:16:28.619Z,99.19
2022-12-03T11:17:28.535Z,99.30
2022-12-03T11:18:28.547Z,99.51
2022-12-03T11:19:28.506Z,99.09
2022-12-03T11:20:28.539Z,98.88
2022-12-03T11:21:28.523Z,98.78
2022-12-03T11:22:28.491Z,99.09
2022-12-03T11:23:28.542Z,99.40
2022-12-03T11:24:28.461Z,99.09
2022-12-03T11:25:28.489Z,99.46
2022-12-03T11:26:28.457Z,99.15
2022-12-03T11:27:28.410Z,98.99
2022-12-03T11:28:28.407Z,98.94
2022-12-03T11:29:28.370Z,99.04
2022-12-03T11:30:28.415Z,98.94
2022-12-03T11:31:28.388Z,98.83
2022-12-03T11:32:31.951Z,98.83
2022-12-03T11:33:28.328Z,98.63
2022-12-03T11:34:28.353Z,98.83
2022-12-03T11:35:28.299Z,98.42
2022-12-03T11:36:54.147Z,98.21
2022-12-03T11:37:28.287Z,98.52
2022-12-03T11:38:28.329Z,98.73
2022-12-03T11:39:28.276Z,98.63
2022-12-03T11:40:28.295Z,98.94
2022-12-03T11:41:28.272Z,98.94
2022-12-03T11:42:28.234Z,98.83
2022-12-03T11:43:28.205Z,98.63
2022-12-03T11:44:28.249Z,98.83
2022-12-03T11:45:28.171Z,98.94
2022-12-03T11:46:28.252Z,98.42
2022-12-03T11:47:28.166Z,98.52
2022-12-03T11:48:28.175Z,98.63
2022-12-03T11:49:28.143Z,98.58
2022-12-03T11:50:28.119Z,98.32
2022-12-03T11:51:28.136Z,98.11
2022-12-03T11:52:28.098Z,98.21
2022-12-03T11:53:28.184Z,97.80
2022-12-03T11:54:28.048Z,97.90
2022-12-03T11:55:28.061Z,98.21
2022-12-03T11:56:28.039Z,98.38
2022-12-03T11:57:28.057Z,98.17
2022-12-03T11:58:28.028Z,98.38
2022-12-03T11:59:28.031Z,98.79
2022-12-03T12:00:27.972Z,98.58
2022-12-03T12:01:27.980Z,98.07
2022-12-03T12:02:28.038Z,97.86
2022-12-03T12:03:28.192Z,97.86
2022-12-03T12:04:28.048Z,97.96
2022-12-03T12:05:27.961Z,97.96
2022-12-03T12:06:27.925Z,97.65
2022-12-03T12:07:28.004Z,97.65
2022-12-03T12:08:27.912Z,97.96
2022-12-03T12:09:27.887Z,98.27
2022-12-03T12:10:27.886Z,98.27
2022-12-03T12:11:27.839Z,98.07
2022-12-03T12:12:27.854Z,98.27
2022-12-03T12:13:27.836Z,98.17
2022-12-03T12:14:27.851Z,97.75
2022-12-03T12:15:27.781Z,97.96
2022-12-03T12:16:27.859Z,98.07
2022-12-03T12:17:27.760Z,98.17
2022-12-03T12:18:27.819Z,98.38
2022-12-03T12:19:27.779Z,98.07
2022-12-03T12:20:27.753Z,97.91
2022-12-03T12:21:27.728Z,97.91
2022-12-03T12:22:27.732Z,97.29
2022-12-03T12:23:27.699Z,97.19
2022-12-03T12:24:27.681Z,96.88
2022-12-03T12:25:27.693Z,96.57
2022-12-03T12:26:27.686Z,96.88
2022-12-03T12:27:27.673Z,96.36
2022-12-03T12:28:27.654Z,96.47
2022-12-03T12:29:27.596Z,95.74
2022-12-03T12:30:27.663Z,95.43
2022-12-03T12:31:27.627Z,95.12
2022-12-03T12:32:27.586Z,95.22
2022-12-03T12:33:27.549Z,95.74
2022-12-03T12:34:27.549Z,96.05
2022-12-03T12:35:27.553Z,95.95
2022-12-03T12:36:27.529Z,95.12
2022-12-03T12:37:27.490Z,95.43
2022-12-03T12:38:27.515Z,95.43
2022-12-03T12:39:27.490Z,95.53
2022-12-03T12:40:27.523Z,95.74
2022-12-03T12:41:27.443Z,95.53
2022-12-03T12:42:27.483Z,95.22
2022-12-03T12:43:27.419Z,95.01
2022-12-03T12:44:27.440Z,94.91
2022-12-03T12:45:27.402Z,95.12
2022-12-03T12:46:47.367Z,95.32
2022-12-03T12:47:27.530Z,95.22
2022-12-03T12:48:27.387Z,94.81
2022-12-03T12:49:27.340Z,95.12
2022-12-03T12:50:27.350Z,94.70
2022-12-03T12:51:27.336Z,94.91
2022-12-03T12:52:27.333Z,95.22